Time;durP1;ratioP1;P1;durP2;ratioP2;P2;SDS_P1;SDS_P2;PMS_P1;PMS_P2;Temp;Humidity;BMP_temperature;BMP_pressure;BME280_temperature;BME280_humidity;BME280_pressure;Samples;Min_cycle;Max_cycle;Signal;HPM_P1;HPM_P2
2022/01/17 00:01:36;;;;;;;29.73;17.00;;;;;;;;;;5019450;28;20033;-72
2022/01/17 00:04:02;;;;;;;32.35;16.40;;;;;;;;;;5026963;28;20132;-72
2022/01/17 00:06:27;;;;;;;35.20;17.95;;;;;;;;;;5024540;28;20044;-72
2022/01/17 00:08:52;;;;;;;29.98;16.30;;;;;;;;;;5022880;28;20172;-72
2022/01/17 00:11:19;;;;;;;33.35;17.73;;;;;;;;;;5021509;28;20053;-73
2022/01/17 00:13:45;;;;;;;31.00;17.02;;;;;;;;;;5025623;28;20108;-73
2022/01/17 00:16:15;;;;;;;30.90;17.40;;;;;;;;;;5026014;28;20025;-73
2022/01/17 00:19:05;;;;;;;31.30;15.93;;;;;;;;;;5018291;28;20075;-73
2022/01/17 00:21:26;;;;;;;28.40;16.20;;;;;;;;;;5026298;28;20532;-73
2022/01/17 00:23:51;;;;;;;30.45;15.80;;;;;;;;;;5018223;28;20041;-71
2022/01/17 00:26:17;;;;;;;27.73;15.07;;;;;;;;;;5022349;28;20391;-74
2022/01/17 00:28:42;;;;;;;31.17;15.95;;;;;;;;;;5024804;28;20038;-71
2022/01/17 00:31:07;;;;;;;28.33;14.65;;;;;;;;;;5018614;28;20489;-72
2022/01/17 00:33:33;;;;;;;27.92;14.48;;;;;;;;;;5022948;28;20456;-72
2022/01/17 00:35:58;;;;;;;30.88;15.25;;;;;;;;;;5020771;28;20408;-72
2022/01/17 00:38:23;;;;;;;26.70;15.40;;;;;;;;;;5017390;28;20507;-71
2022/01/17 00:40:48;;;;;;;27.95;15.35;;;;;;;;;;5022592;28;20108;-72
2022/01/17 00:43:14;;;;;;;28.00;15.05;;;;;;;;;;5018912;28;20392;-72
2022/01/17 00:45:41;;;;;;;26.08;14.38;;;;;;;;;;5026992;28;20024;-72
2022/01/17 00:48:07;;;;;;;29.92;15.25;;;;;;;;;;5019821;28;20487;-73
2022/01/17 00:50:32;;;;;;;28.92;14.65;;;;;;;;;;5024003;28;20030;-72
2022/01/17 00:53:02;;;;;;;26.05;13.60;;;;;;;;;;5027868;28;20029;-72
2022/01/17 00:55:28;;;;;;;27.30;14.27;;;;;;;;;;5024866;28;20080;-71
2022/01/17 00:57:53;;;;;;;24.80;13.93;;;;;;;;;;5027167;28;20065;-74
2022/01/17 01:00:18;;;;;;;25.77;13.32;;;;;;;;;;5016775;28;20746;-74
2022/01/17 01:02:44;;;;;;;24.50;13.30;;;;;;;;;;5027651;28;20028;-73
2022/01/17 01:05:09;;;;;;;25.40;13.63;;;;;;;;;;5024091;28;20030;-72
2022/01/17 01:07:34;;;;;;;23.35;13.38;;;;;;;;;;5027723;28;20081;-71
2022/01/17 01:10:06;;;;;;;25.63;13.18;;;;;;;;;;5026569;28;20104;-73
2022/01/17 01:12:32;;;;;;;24.90;13.38;;;;;;;;;;5027128;28;20535;-72
2022/01/17 01:14:57;;;;;;;27.40;13.98;;;;;;;;;;5026307;28;20025;-72
2022/01/17 01:17:49;;;;;;;24.02;13.38;;;;;;;;;;5027968;28;20077;-73
2022/01/17 01:28:18;;;;;;;21.05;10.98;;;;;;;;;;5024977;28;20048;-72
2022/01/17 01:30:47;;;;;;;22.33;10.98;;;;;;;;;;5014702;28;20033;-71
2022/01/17 01:33:19;;;;;;;20.75;11.00;;;;;;;;;;5023780;28;20079;-73
2022/01/17 01:35:46;;;;;;;20.55;11.00;;;;;;;;;;5028309;28;20355;-73
2022/01/17 01:38:11;;;;;;;18.23;10.77;;;;;;;;;;5021616;28;20030;-73
2022/01/17 01:40:38;;;;;;;18.90;10.40;;;;;;;;;;5023983;28;20036;-73
2022/01/17 01:43:03;;;;;;;19.95;10.38;;;;;;;;;;5027466;28;20112;-73
2022/01/17 01:45:28;;;;;;;22.20;9.63;;;;;;;;;;5025711;28;20578;-72
2022/01/17 01:47:54;;;;;;;19.98;11.55;;;;;;;;;;5025000;28;20385;-73
2022/01/17 01:50:19;;;;;;;19.38;10.07;;;;;;;;;;5023198;28;20038;-73
2022/01/17 01:52:45;;;;;;;19.08;10.15;;;;;;;;;;5029658;28;20018;-74
2022/01/17 01:55:11;;;;;;;17.30;9.38;;;;;;;;;;5028211;28;20037;-73
2022/01/17 01:57:37;;;;;;;16.48;9.23;;;;;;;;;;5028200;28;20022;-74
2022/01/17 02:00:04;;;;;;;15.80;9.13;;;;;;;;;;5022531;28;20033;-72
2022/01/17 02:02:29;;;;;;;18.48;9.70;;;;;;;;;;5023678;28;20036;-72
2022/01/17 02:04:54;;;;;;;17.15;9.25;;;;;;;;;;5028381;28;20026;-72
2022/01/17 02:07:20;;;;;;;13.68;7.80;;;;;;;;;;5026060;28;20057;-73
2022/01/17 02:09:45;;;;;;;18.45;9.65;;;;;;;;;;5023967;28;20405;-72
2022/01/17 02:12:10;;;;;;;14.95;8.15;;;;;;;;;;5023453;28;20026;-73
2022/01/17 02:14:35;;;;;;;14.45;7.93;;;;;;;;;;5023283;28;20032;-72
2022/01/17 02:17:02;;;;;;;13.60;7.25;;;;;;;;;;5026625;28;20025;-72
2022/01/17 02:19:29;;;;;;;13.18;7.40;;;;;;;;;;5019008;28;20080;-72
2022/01/17 02:21:54;;;;;;;13.38;7.20;;;;;;;;;;5027279;28;20029;-72
2022/01/17 02:24:20;;;;;;;15.73;7.22;;;;;;;;;;5023504;28;20026;-72
2022/01/17 02:26:47;;;;;;;12.95;6.63;;;;;;;;;;5026169;28;20555;-71
2022/01/17 02:29:12;;;;;;;15.00;7.45;;;;;;;;;;5022580;28;20037;-74
2022/01/17 02:31:37;;;;;;;12.95;6.57;;;;;;;;;;5025276;28;20472;-73
2022/01/17 02:34:03;;;;;;;13.90;6.70;;;;;;;;;;5023954;28;20033;-74
2022/01/17 02:36:29;;;;;;;12.35;6.28;;;;;;;;;;5026948;28;20034;-73
2022/01/17 02:38:54;;;;;;;12.70;6.72;;;;;;;;;;5022751;28;20037;-72
2022/01/17 02:41:19;;;;;;;12.00;6.55;;;;;;;;;;5026732;28;20365;-73
2022/01/17 02:43:47;;;;;;;10.27;6.07;;;;;;;;;;5024031;28;20025;-74
2022/01/17 02:48:39;;;;;;;12.77;6.53;;;;;;;;;;5026528;28;20132;-72
2022/01/17 02:51:05;;;;;;;10.77;6.80;;;;;;;;;;5026589;28;20068;-74
2022/01/17 02:53:30;;;;;;;13.50;7.20;;;;;;;;;;5016926;28;20037;-72
2022/01/17 02:55:56;;;;;;;13.35;7.32;;;;;;;;;;5017760;28;20044;-73
2022/01/17 02:58:22;;;;;;;13.00;6.82;;;;;;;;;;5028692;28;20079;-73
2022/01/17 03:00:49;;;;;;;12.77;6.70;;;;;;;;;;5021083;28;20017;-72
2022/01/17 03:03:14;;;;;;;12.30;6.63;;;;;;;;;;5027531;28;20116;-73
2022/01/17 03:05:40;;;;;;;11.82;6.63;;;;;;;;;;5024279;28;20112;-73
2022/01/17 03:08:05;;;;;;;11.52;7.05;;;;;;;;;;5022215;28;20164;-73
2022/01/17 03:10:39;;;;;;;13.38;6.53;;;;;;;;;;5028544;28;20025;-74
2022/01/17 03:13:04;;;;;;;13.57;7.07;;;;;;;;;;5023394;28;20788;-73
2022/01/17 03:15:30;;;;;;;13.15;6.63;;;;;;;;;;5026826;28;20021;-73
2022/01/17 03:17:55;;;;;;;14.00;6.97;;;;;;;;;;5026102;28;20104;-73
2022/01/17 03:20:20;;;;;;;12.15;6.80;;;;;;;;;;5027534;28;20064;-74
2022/01/17 03:22:46;;;;;;;12.90;7.22;;;;;;;;;;5023048;28;20036;-71
2022/01/17 03:25:11;;;;;;;11.18;6.90;;;;;;;;;;5022062;28;20116;-72
2022/01/17 03:27:36;;;;;;;13.68;7.18;;;;;;;;;;5027253;28;20116;-73
2022/01/17 03:30:01;;;;;;;12.48;6.75;;;;;;;;;;5024899;28;20514;-73
2022/01/17 03:32:27;;;;;;;13.90;6.70;;;;;;;;;;5026321;28;20044;-71
2022/01/17 03:34:55;;;;;;;13.40;7.25;;;;;;;;;;5020897;28;20041;-75
2022/01/17 03:37:20;;;;;;;13.15;6.47;;;;;;;;;;5023197;28;20013;-72
2022/01/17 03:39:45;;;;;;;12.68;6.63;;;;;;;;;;5022927;28;20552;-72
2022/01/17 03:42:10;;;;;;;14.77;7.97;;;;;;;;;;5025971;28;20030;-72
2022/01/17 03:44:36;;;;;;;11.88;6.60;;;;;;;;;;5022931;28;20218;-72
2022/01/17 03:47:01;;;;;;;14.93;8.00;;;;;;;;;;5021393;28;20057;-74
2022/01/17 03:49:26;;;;;;;12.48;7.40;;;;;;;;;;5021557;28;20174;-73
2022/01/17 03:51:51;;;;;;;15.20;7.50;;;;;;;;;;5028600;28;20054;-73
2022/01/17 03:54:16;;;;;;;15.20;8.18;;;;;;;;;;5026608;28;20502;-73
2022/01/17 03:56:42;;;;;;;14.43;7.90;;;;;;;;;;5021283;28;20102;-73
2022/01/17 03:59:07;;;;;;;13.32;7.95;;;;;;;;;;5027889;28;20052;-73
2022/01/17 04:01:32;;;;;;;13.45;7.47;;;;;;;;;;5024552;28;20024;-73
2022/01/17 04:03:57;;;;;;;13.00;7.55;;;;;;;;;;5022529;28;20021;-72
2022/01/17 04:06:24;;;;;;;13.68;7.15;;;;;;;;;;5028653;28;20409;-72
2022/01/17 04:08:49;;;;;;;13.60;7.70;;;;;;;;;;5026600;28;20041;-72
2022/01/17 04:11:14;;;;;;;14.27;7.35;;;;;;;;;;5023835;28;20032;-73
2022/01/17 04:13:40;;;;;;;13.48;7.60;;;;;;;;;;5027143;28;20029;-73
2022/01/17 04:16:05;;;;;;;11.57;6.68;;;;;;;;;;5024689;28;20021;-71
2022/01/17 04:18:30;;;;;;;14.13;7.80;;;;;;;;;;5025129;28;20128;-72
2022/01/17 04:20:57;;;;;;;12.70;7.13;;;;;;;;;;5027373;28;20025;-73
2022/01/17 04:23:23;;;;;;;14.95;7.82;;;;;;;;;;5030004;28;20025;-73
2022/01/17 04:25:49;;;;;;;13.30;7.55;;;;;;;;;;5025582;28;20021;-72
2022/01/17 04:28:14;;;;;;;14.40;7.68;;;;;;;;;;5023754;28;20037;-72
2022/01/17 04:30:40;;;;;;;14.73;7.47;;;;;;;;;;5026926;28;20120;-73
2022/01/17 04:33:06;;;;;;;11.48;6.93;;;;;;;;;;5026553;28;20119;-72
2022/01/17 04:35:32;;;;;;;12.57;7.55;;;;;;;;;;5024780;28;20021;-73
2022/01/17 04:37:58;;;;;;;15.27;7.57;;;;;;;;;;5024257;28;20423;-73
2022/01/17 04:40:24;;;;;;;12.43;7.47;;;;;;;;;;5025320;28;20388;-73
2022/01/17 04:42:53;;;;;;;14.32;7.32;;;;;;;;;;5027223;28;20036;-73
2022/01/17 04:45:20;;;;;;;12.80;7.30;;;;;;;;;;5026001;28;20018;-73
2022/01/17 04:47:47;;;;;;;13.80;7.75;;;;;;;;;;5024846;28;20436;-73
2022/01/17 04:50:13;;;;;;;13.32;7.70;;;;;;;;;;5026288;28;21631;-72
2022/01/17 04:52:39;;;;;;;13.38;7.28;;;;;;;;;;5023927;28;20138;-73
2022/01/17 04:55:06;;;;;;;15.35;8.43;;;;;;;;;;5024475;28;20029;-74
2022/01/17 04:57:31;;;;;;;14.38;7.40;;;;;;;;;;5027467;28;20032;-72
2022/01/17 04:59:57;;;;;;;12.32;7.35;;;;;;;;;;5021037;28;20028;-72
2022/01/17 05:02:22;;;;;;;12.77;7.30;;;;;;;;;;5022415;28;20127;-71
2022/01/17 05:04:48;;;;;;;11.35;7.05;;;;;;;;;;5020428;28;20499;-72
2022/01/17 05:07:14;;;;;;;13.65;7.75;;;;;;;;;;5019241;28;20058;-73
2022/01/17 05:09:41;;;;;;;12.45;7.05;;;;;;;;;;5025798;28;20380;-72
2022/01/17 05:12:06;;;;;;;13.52;7.30;;;;;;;;;;5027536;28;20028;-72
2022/01/17 05:14:32;;;;;;;14.00;7.72;;;;;;;;;;5022114;28;20029;-73
2022/01/17 05:17:04;;;;;;;12.10;7.20;;;;;;;;;;5021419;28;20079;-73
2022/01/17 05:22:13;;;;;;;13.43;7.65;;;;;;;;;;5025161;28;20079;-72
2022/01/17 05:24:38;;;;;;;13.43;7.53;;;;;;;;;;5026579;28;20428;-74
2022/01/17 05:27:04;;;;;;;12.65;7.30;;;;;;;;;;5024762;28;20040;-71
2022/01/17 05:29:29;;;;;;;13.68;7.10;;;;;;;;;;5024159;28;20033;-72
2022/01/17 05:31:54;;;;;;;11.30;6.80;;;;;;;;;;5019532;28;20488;-72
2022/01/17 05:34:19;;;;;;;12.65;7.10;;;;;;;;;;5023255;28;20110;-72
2022/01/17 05:36:44;;;;;;;14.50;6.70;;;;;;;;;;5024763;28;20049;-72
2022/01/17 05:39:10;;;;;;;12.32;6.47;;;;;;;;;;5023713;28;20025;-71
2022/01/17 05:41:35;;;;;;;12.15;7.10;;;;;;;;;;5027858;28;20043;-71
2022/01/17 05:44:00;;;;;;;12.30;7.13;;;;;;;;;;5027833;28;20495;-72
2022/01/17 05:46:25;;;;;;;11.48;6.40;;;;;;;;;;5026951;28;20034;-73
2022/01/17 05:48:50;;;;;;;11.85;7.30;;;;;;;;;;5029702;28;20034;-74
2022/01/17 05:51:16;;;;;;;13.88;6.65;;;;;;;;;;5026198;28;20052;-72
2022/01/17 05:53:41;;;;;;;11.93;6.22;;;;;;;;;;5029394;28;20420;-72
2022/01/17 05:56:06;;;;;;;13.43;6.80;;;;;;;;;;5021751;28;20030;-72
2022/01/17 05:58:31;;;;;;;11.90;6.65;;;;;;;;;;5029068;28;20079;-72
2022/01/17 06:00:57;;;;;;;12.10;6.68;;;;;;;;;;5021602;28;20456;-71
2022/01/17 06:03:22;;;;;;;11.38;6.13;;;;;;;;;;5029192;28;20116;-73
2022/01/17 06:05:47;;;;;;;11.07;5.97;;;;;;;;;;5025161;28;20087;-72
2022/01/17 06:08:12;;;;;;;10.85;6.10;;;;;;;;;;5030271;28;20132;-72
2022/01/17 06:10:38;;;;;;;11.98;6.53;;;;;;;;;;5025269;28;20032;-71
2022/01/17 06:13:03;;;;;;;10.77;6.20;;;;;;;;;;5019625;28;20140;-72
2022/01/17 06:15:28;;;;;;;11.73;6.70;;;;;;;;;;5027149;28;20116;-73
2022/01/17 06:17:54;;;;;;;11.02;6.32;;;;;;;;;;5030904;28;20033;-72
2022/01/17 06:20:19;;;;;;;12.80;6.78;;;;;;;;;;5028071;28;20025;-75
2022/01/17 06:22:44;;;;;;;9.43;6.15;;;;;;;;;;5025964;28;20028;-73
2022/01/17 06:25:10;;;;;;;11.60;6.00;;;;;;;;;;5018200;28;20025;-73
2022/01/17 06:27:35;;;;;;;12.27;6.68;;;;;;;;;;5030713;28;20025;-81
2022/01/17 06:30:00;;;;;;;10.90;6.18;;;;;;;;;;5027151;28;20443;-80
2022/01/17 06:32:26;;;;;;;13.02;7.22;;;;;;;;;;5028999;28;20365;-79
2022/01/17 06:34:51;;;;;;;10.50;6.38;;;;;;;;;;5025831;28;20494;-78
2022/01/17 06:37:17;;;;;;;10.48;6.10;;;;;;;;;;5034988;28;20104;-80
2022/01/17 06:39:42;;;;;;;11.50;5.88;;;;;;;;;;5030596;28;20035;-78
2022/01/17 06:42:08;;;;;;;11.30;6.18;;;;;;;;;;5030309;28;20033;-80
2022/01/17 06:44:33;;;;;;;10.95;6.00;;;;;;;;;;5027284;28;20041;-79
2022/01/17 06:46:58;;;;;;;11.63;5.82;;;;;;;;;;5030595;28;20052;-79
2022/01/17 06:49:23;;;;;;;10.75;6.30;;;;;;;;;;5029912;28;20087;-78
2022/01/17 06:51:48;;;;;;;11.90;6.30;;;;;;;;;;5030486;28;20041;-81
2022/01/17 06:54:14;;;;;;;12.20;6.38;;;;;;;;;;5023292;28;20108;-78
2022/01/17 06:56:43;;;;;;;10.57;5.75;;;;;;;;;;5028344;28;20097;-79
2022/01/17 06:59:09;;;;;;;10.13;5.72;;;;;;;;;;5030264;28;20341;-78
2022/01/17 07:01:38;;;;;;;10.52;6.05;;;;;;;;;;5029217;28;20013;-71
2022/01/17 07:04:03;;;;;;;10.00;5.60;;;;;;;;;;5022386;28;20029;-70
2022/01/17 07:06:28;;;;;;;10.73;5.85;;;;;;;;;;5020935;28;20115;-71
2022/01/17 07:08:53;;;;;;;10.55;6.47;;;;;;;;;;5022339;28;20034;-72
2022/01/17 07:11:19;;;;;;;10.68;6.05;;;;;;;;;;5023775;28;20204;-71
2022/01/17 07:13:44;;;;;;;10.68;6.15;;;;;;;;;;5029903;28;20542;-72
2022/01/17 07:16:10;;;;;;;13.52;6.13;;;;;;;;;;5027196;28;20022;-72
2022/01/17 07:18:35;;;;;;;10.30;5.43;;;;;;;;;;5028635;28;20098;-70
2022/01/17 07:21:00;;;;;;;11.98;5.82;;;;;;;;;;5029476;28;20469;-72
2022/01/17 07:23:25;;;;;;;9.00;5.30;;;;;;;;;;5028273;28;20021;-72
2022/01/17 07:25:51;;;;;;;10.27;5.75;;;;;;;;;;5017517;28;20105;-72
2022/01/17 07:28:16;;;;;;;9.45;5.82;;;;;;;;;;5025023;28;20396;-73
2022/01/17 07:30:41;;;;;;;10.43;5.78;;;;;;;;;;5027425;28;20455;-72
2022/01/17 07:33:07;;;;;;;9.55;5.38;;;;;;;;;;5023910;28;20063;-72
2022/01/17 07:35:33;;;;;;;8.85;5.13;;;;;;;;;;5029265;28;20032;-73
2022/01/17 07:37:58;;;;;;;9.80;5.28;;;;;;;;;;5028412;28;20033;-72
2022/01/17 07:40:24;;;;;;;11.00;5.47;;;;;;;;;;5028904;28;20063;-72
2022/01/17 07:42:49;;;;;;;9.15;5.70;;;;;;;;;;5028709;28;20052;-71
2022/01/17 07:45:17;;;;;;;11.30;5.32;;;;;;;;;;5029512;28;20059;-72
2022/01/17 07:50:11;;;;;;;9.68;5.30;;;;;;;;;;5023463;28;20170;-73
2022/01/17 07:52:37;;;;;;;8.38;4.90;;;;;;;;;;5036703;28;20031;-72
2022/01/17 07:55:03;;;;;;;10.82;6.47;;;;;;;;;;5028735;28;20112;-71
2022/01/17 07:57:28;;;;;;;10.40;5.43;;;;;;;;;;5028785;28;20426;-72
2022/01/17 07:59:53;;;;;;;9.15;5.30;;;;;;;;;;5025314;28;20029;-73
2022/01/17 08:02:19;;;;;;;10.50;5.45;;;;;;;;;;5027642;28;20021;-72
2022/01/17 08:04:44;;;;;;;10.20;5.43;;;;;;;;;;5028539;28;20469;-72
2022/01/17 08:07:09;;;;;;;10.00;5.93;;;;;;;;;;5028612;28;20060;-71
2022/01/17 08:09:34;;;;;;;10.13;5.28;;;;;;;;;;5027116;28;20056;-73
2022/01/17 08:12:00;;;;;;;8.88;5.38;;;;;;;;;;5027005;28;20036;-71
2022/01/17 08:14:26;;;;;;;10.80;6.05;;;;;;;;;;5028487;28;20045;-72
2022/01/17 08:16:51;;;;;;;10.13;6.10;;;;;;;;;;5028604;28;20025;-74
2022/01/17 08:19:17;;;;;;;11.10;5.88;;;;;;;;;;5025089;28;20099;-72
2022/01/17 08:21:42;;;;;;;10.13;5.85;;;;;;;;;;5032454;28;20028;-72
2022/01/17 08:24:07;;;;;;;10.38;6.05;;;;;;;;;;5032832;28;20021;-72
2022/01/17 08:26:33;;;;;;;9.90;5.85;;;;;;;;;;5028577;28;20032;-71
2022/01/17 08:28:58;;;;;;;9.63;5.93;;;;;;;;;;5028350;28;20391;-73
2022/01/17 08:31:23;;;;;;;10.95;6.22;;;;;;;;;;5021824;28;20527;-73
2022/01/17 08:33:48;;;;;;;11.90;6.18;;;;;;;;;;5028644;28;20088;-73
2022/01/17 08:36:14;;;;;;;11.60;6.55;;;;;;;;;;5028950;28;20874;-71
2022/01/17 08:38:40;;;;;;;11.25;6.55;;;;;;;;;;5022145;28;20460;-73
2022/01/17 08:41:05;;;;;;;10.05;6.05;;;;;;;;;;5027434;28;20021;-72
2022/01/17 08:43:31;;;;;;;11.73;6.75;;;;;;;;;;5028478;28;20030;-73
2022/01/17 08:45:56;;;;;;;10.90;6.32;;;;;;;;;;5028026;28;20439;-73
2022/01/17 08:48:21;;;;;;;11.80;7.20;;;;;;;;;;5027977;28;20461;-74
2022/01/17 08:50:47;;;;;;;11.60;6.47;;;;;;;;;;5024992;28;20010;-73
2022/01/17 08:53:13;;;;;;;12.57;6.30;;;;;;;;;;5028890;28;20021;-73
2022/01/17 08:55:39;;;;;;;11.07;6.70;;;;;;;;;;5028395;28;20018;-74
2022/01/17 08:58:05;;;;;;;12.15;6.40;;;;;;;;;;5028474;28;20113;-74
2022/01/17 09:00:33;;;;;;;12.10;7.00;;;;;;;;;;5022111;28;20026;-74
2022/01/17 09:03:01;;;;;;;12.35;6.47;;;;;;;;;;5028482;28;20111;-75
2022/01/17 09:05:26;;;;;;;10.18;6.35;;;;;;;;;;5028228;28;20033;-74
2022/01/17 09:07:52;;;;;;;12.10;6.65;;;;;;;;;;5028280;28;20010;-73
2022/01/17 09:10:17;;;;;;;12.80;6.68;;;;;;;;;;5028254;28;20029;-73
2022/01/17 09:12:43;;;;;;;10.23;6.10;;;;;;;;;;5024769;28;20026;-72
2022/01/17 09:15:10;;;;;;;12.43;6.43;;;;;;;;;;5032629;28;20032;-73
2022/01/17 09:17:35;;;;;;;11.45;6.20;;;;;;;;;;5032432;28;20029;-76
2022/01/17 09:20:01;;;;;;;10.65;5.95;;;;;;;;;;5032265;28;20043;-74
2022/01/17 09:22:26;;;;;;;9.63;6.80;;;;;;;;;;5034922;28;20168;-75
2022/01/17 09:24:52;;;;;;;11.77;5.78;;;;;;;;;;5031777;28;20030;-74
2022/01/17 09:27:17;;;;;;;10.73;6.45;;;;;;;;;;5032227;28;20052;-74
2022/01/17 09:29:42;;;;;;;10.20;5.78;;;;;;;;;;5031527;28;20119;-74
2022/01/17 09:32:08;;;;;;;10.02;5.82;;;;;;;;;;5031849;28;20017;-73
2022/01/17 09:34:33;;;;;;;11.48;6.32;;;;;;;;;;5031380;28;20014;-73
2022/01/17 09:36:58;;;;;;;12.55;5.97;;;;;;;;;;5031634;28;20017;-74
2022/01/17 09:39:24;;;;;;;9.45;5.38;;;;;;;;;;5031544;28;20075;-74
2022/01/17 09:41:49;;;;;;;9.82;5.70;;;;;;;;;;5031702;28;20117;-74
2022/01/17 09:44:14;;;;;;;8.23;5.30;;;;;;;;;;5025947;28;20083;-76
2022/01/17 09:46:44;;;;;;;9.80;5.53;;;;;;;;;;5032093;28;20042;-73
2022/01/17 09:49:15;;;;;;;9.55;5.93;;;;;;;;;;5031548;28;20037;-74
2022/01/17 09:54:26;;;;;;;10.25;5.55;;;;;;;;;;5019226;28;20032;-73
2022/01/17 09:56:52;;;;;;;10.18;6.18;;;;;;;;;;5031450;28;20051;-73
2022/01/17 09:59:18;;;;;;;9.63;5.90;;;;;;;;;;5031106;28;20033;-73
2022/01/17 10:01:43;;;;;;;9.82;5.72;;;;;;;;;;5031480;28;20578;-75
2022/01/17 10:04:09;;;;;;;10.00;5.47;;;;;;;;;;5031423;28;20029;-75
2022/01/17 10:06:35;;;;;;;10.63;5.95;;;;;;;;;;5031381;28;20126;-74
2022/01/17 10:09:14;;;;;;;11.25;5.50;;;;;;;;;;5031220;28;20108;-73
2022/01/17 10:11:59;;;;;;;13.70;5.70;;;;;;;;;;5031623;28;20075;-75
2022/01/17 10:14:25;;;;;;;9.77;5.60;;;;;;;;;;5033686;28;20404;-73
2022/01/17 10:16:50;;;;;;;13.43;6.78;;;;;;;;;;5034412;28;20032;-73
2022/01/17 10:19:15;;;;;;;11.80;5.18;;;;;;;;;;5034878;28;20545;-74
2022/01/17 10:21:51;;;;;;;10.63;5.15;;;;;;;;;;5036472;28;20025;-74
2022/01/17 10:34:56;;;;;;;8.93;5.20;;;;;;;;;;5031813;28;20087;-73
2022/01/17 10:37:25;;;;;;;8.70;4.65;;;;;;;;;;5029667;28;20384;-72
2022/01/17 10:39:51;;;;;;;8.38;4.82;;;;;;;;;;5029874;28;20044;-73
2022/01/17 10:42:30;;;;;;;8.02;4.80;;;;;;;;;;5029730;28;20048;-72
2022/01/17 10:44:55;;;;;;;;;;;;;;;;;;5031889;28;20044;-72
2022/01/17 10:47:25;;;;;;;8.40;5.20;;;;;;;;;;5029861;28;19919;-72
2022/01/17 10:49:51;;;;;;;8.32;4.90;;;;;;;;;;5023834;28;20041;-72
2022/01/17 10:52:28;;;;;;;7.63;5.00;;;;;;;;;;5031552;28;20029;-71
2022/01/17 10:54:55;;;;;;;9.35;4.85;;;;;;;;;;5030881;28;20025;-73
2022/01/17 10:57:22;;;;;;;10.85;4.70;;;;;;;;;;5028633;28;20629;-72
2022/01/17 10:59:51;;;;;;;7.63;4.25;;;;;;;;;;5029157;28;20033;-72
2022/01/17 11:02:16;;;;;;;8.95;5.03;;;;;;;;;;5030977;28;20036;-72
2022/01/17 11:04:41;;;;;;;8.45;4.45;;;;;;;;;;5030352;28;20026;-72
2022/01/17 11:07:08;;;;;;;7.95;4.78;;;;;;;;;;5029037;28;20033;-73
2022/01/17 11:09:39;;;;;;;8.85;4.50;;;;;;;;;;5028481;28;20029;-74
2022/01/17 11:12:09;;;;;;;6.80;3.92;;;;;;;;;;5030311;28;20060;-74
2022/01/17 11:14:37;;;;;;;6.97;4.18;;;;;;;;;;5030117;28;20025;-73
2022/01/17 11:17:20;;;;;;;9.02;4.35;;;;;;;;;;5030022;28;20033;-73
2022/01/17 11:22:29;;;;;;;6.70;3.55;;;;;;;;;;5034086;28;20479;-73
2022/01/17 11:24:55;;;;;;;7.25;3.95;;;;;;;;;;5029712;28;20025;-72
2022/01/17 11:27:20;;;;;;;7.38;4.30;;;;;;;;;;5029356;28;20040;-72
2022/01/17 11:29:47;;;;;;;8.00;4.00;;;;;;;;;;5026372;28;20444;-72
2022/01/17 11:32:12;;;;;;;7.60;4.15;;;;;;;;;;5030150;28;20459;-71
2022/01/17 11:34:38;;;;;;;7.82;3.88;;;;;;;;;;5029913;28;20030;-72
2022/01/17 11:37:03;;;;;;;7.38;4.35;;;;;;;;;;5029986;28;20018;-72
2022/01/17 11:39:28;;;;;;;7.60;4.13;;;;;;;;;;5026320;28;20398;-73
2022/01/17 11:41:53;;;;;;;8.48;4.15;;;;;;;;;;5029130;28;20013;-72
2022/01/17 11:44:30;;;;;;;6.95;4.20;;;;;;;;;;5029390;28;20530;-72
2022/01/17 11:46:56;;;;;;;7.57;4.10;;;;;;;;;;5023402;28;20035;-72
2022/01/17 11:49:24;;;;;;;8.30;4.10;;;;;;;;;;5028874;28;20041;-66
2022/01/17 11:51:50;;;;;;;7.45;4.50;;;;;;;;;;5023741;28;20045;-66
2022/01/17 11:54:23;;;;;;;7.90;3.70;;;;;;;;;;5029588;28;20072;-68
2022/01/17 11:56:52;;;;;;;6.45;4.05;;;;;;;;;;5023240;28;20539;-66
2022/01/17 11:59:32;;;;;;;8.10;4.50;;;;;;;;;;5028617;28;20066;-66
2022/01/17 12:02:16;;;;;;;7.65;4.13;;;;;;;;;;5024557;28;20116;-67
2022/01/17 12:04:41;;;;;;;11.98;5.22;;;;;;;;;;5026438;28;20451;-68
2022/01/17 12:07:07;;;;;;;8.18;4.70;;;;;;;;;;5019725;28;20057;-66
2022/01/17 12:09:32;;;;;;;7.63;4.25;;;;;;;;;;5021620;28;20041;-66
2022/01/17 12:12:03;;;;;;;8.68;4.65;;;;;;;;;;5022599;28;20104;-67
2022/01/17 12:14:33;;;;;;;8.20;4.38;;;;;;;;;;5020721;28;20021;-66
2022/01/17 12:17:17;;;;;;;7.65;4.75;;;;;;;;;;5016208;28;20018;-67
2022/01/17 12:20:01;;;;;;;8.23;4.18;;;;;;;;;;5020404;28;20021;-66
2022/01/17 12:22:26;;;;;;;10.27;4.63;;;;;;;;;;5023261;28;20099;-66
2022/01/17 12:24:51;;;;;;;10.00;4.68;;;;;;;;;;5015135;28;20664;-65
2022/01/17 12:27:17;;;;;;;8.45;4.43;;;;;;;;;;5017120;28;20071;-66
2022/01/17 12:29:47;;;;;;;10.52;4.20;;;;;;;;;;5016353;28;20031;-67
2022/01/17 12:32:12;;;;;;;;;;;;;;;;;;5020971;28;20100;-66
2022/01/17 12:34:41;;;;;;;8.35;4.10;;;;;;;;;;5014045;28;20004;-66
2022/01/17 12:37:25;;;;;;;8.25;4.18;;;;;;;;;;5020425;28;20101;-67
2022/01/17 12:39:51;;;;;;;8.65;4.43;;;;;;;;;;5013259;28;20033;-67
2022/01/17 12:42:16;;;;;;;7.90;4.13;;;;;;;;;;5019857;28;20044;-67
2022/01/17 12:44:44;;;;;;;8.10;4.40;;;;;;;;;;5018984;28;20029;-68
2022/01/17 12:47:09;;;;;;;8.10;4.22;;;;;;;;;;5017170;28;20025;-66
2022/01/17 12:49:34;;;;;;;10.45;4.72;;;;;;;;;;5022850;28;20037;-66
2022/01/17 12:52:00;;;;;;;7.50;4.18;;;;;;;;;;5032271;28;20028;-66
2022/01/17 12:54:28;;;;;;;7.68;4.22;;;;;;;;;;5027533;28;20044;-65
2022/01/17 12:56:54;;;;;;;7.53;4.22;;;;;;;;;;5027333;28;20437;-66
2022/01/17 12:59:20;;;;;;;8.50;4.60;;;;;;;;;;5027003;28;20022;-66
2022/01/17 13:01:50;;;;;;;8.27;4.50;;;;;;;;;;5030042;28;20025;-66
2022/01/17 13:04:16;;;;;;;7.88;4.47;;;;;;;;;;5028397;28;20537;-67
2022/01/17 13:06:43;;;;;;;6.50;3.58;;;;;;;;;;5027056;28;20046;-66
2022/01/17 13:09:12;;;;;;;8.05;4.20;;;;;;;;;;5028354;28;20038;-67
2022/01/17 13:11:38;;;;;;;7.30;3.75;;;;;;;;;;5024636;28;20104;-66
2022/01/17 13:14:04;;;;;;;7.55;3.30;;;;;;;;;;5031700;28;20536;-65
2022/01/17 13:16:36;;;;;;;6.15;3.33;;;;;;;;;;5032151;28;20029;-65
2022/01/17 13:19:03;;;;;;;6.18;3.38;;;;;;;;;;5025706;28;20037;-65
2022/01/17 13:21:29;;;;;;;7.82;3.13;;;;;;;;;;5030233;28;20045;-67
2022/01/17 13:24:11;;;;;;;;;;;;;;;;;;;;;
2022/01/17 13:26:25;;;;;;;5.13;2.92;;;;;;;;;;5031027;28;20021;-66
2022/01/17 13:28:52;;;;;;;6.32;3.00;;;;;;;;;;5027631;28;20068;-65
2022/01/17 13:31:18;;;;;;;5.72;2.95;;;;;;;;;;5028985;28;20025;-65
2022/01/17 13:33:43;;;;;;;5.35;3.00;;;;;;;;;;5027033;28;20036;-67
2022/01/17 13:36:08;;;;;;;5.53;2.88;;;;;;;;;;5025931;28;20071;-66
2022/01/17 13:38:33;;;;;;;4.47;2.60;;;;;;;;;;5024242;28;20388;-65
2022/01/17 13:41:02;;;;;;;6.30;2.83;;;;;;;;;;5021645;28;20033;-65
2022/01/17 13:43:27;;;;;;;5.60;2.80;;;;;;;;;;5025034;28;20155;-65
2022/01/17 13:45:54;;;;;;;5.88;2.80;;;;;;;;;;5029446;28;20106;-64
2022/01/17 13:48:27;;;;;;;3.95;2.40;;;;;;;;;;5022334;28;20453;-65
2022/01/17 13:50:57;;;;;;;6.32;2.70;;;;;;;;;;5030118;28;20104;-67
2022/01/17 13:53:24;;;;;;;8.52;2.95;;;;;;;;;;5025986;28;20687;-66
2022/01/17 13:55:50;;;;;;;4.63;2.53;;;;;;;;;;5025584;28;20056;-64
2022/01/17 13:58:17;;;;;;;5.13;2.63;;;;;;;;;;5030862;28;20033;-65
2022/01/17 14:00:44;;;;;;;4.47;2.35;;;;;;;;;;5031431;28;20021;-65
2022/01/17 14:03:10;;;;;;;5.95;2.45;;;;;;;;;;5030768;28;20034;-65
2022/01/17 14:05:46;;;;;;;5.00;2.30;;;;;;;;;;5029871;28;20029;-67
2022/01/17 14:08:16;;;;;;;6.18;2.72;;;;;;;;;;5030608;28;20504;-65
2022/01/17 14:11:07;;;;;;;4.35;1.75;;;;;;;;;;5031639;28;20536;-67
2022/01/17 14:13:37;;;;;;;3.65;2.00;;;;;;;;;;5020531;28;20523;-66
2022/01/17 14:16:02;;;;;;;;;;;;;;;;;;5031899;28;20038;-67
2022/01/17 14:18:28;;;;;;;3.42;1.98;;;;;;;;;;5029483;28;19913;-65
2022/01/17 14:20:54;;;;;;;3.95;2.17;;;;;;;;;;5030102;28;20044;-65
2022/01/17 14:23:38;;;;;;;4.45;2.10;;;;;;;;;;5019625;28;20072;-66
2022/01/17 14:26:03;;;;;;;5.03;2.03;;;;;;;;;;5031126;28;20021;-65
2022/01/17 14:28:30;;;;;;;4.95;2.20;;;;;;;;;;5029866;28;20041;-66
2022/01/17 14:30:56;;;;;;;3.10;1.70;;;;;;;;;;5030389;28;20741;-67
2022/01/17 14:33:22;;;;;;;3.35;2.00;;;;;;;;;;5027198;28;20022;-65
2022/01/17 14:36:00;;;;;;;5.28;2.03;;;;;;;;;;5030199;28;20066;-66
2022/01/17 14:38:25;;;;;;;3.67;2.10;;;;;;;;;;5026477;28;20029;-65
2022/01/17 14:40:50;;;;;;;6.55;2.42;;;;;;;;;;5030388;28;20028;-66
2022/01/17 14:43:15;;;;;;;3.92;1.95;;;;;;;;;;5026205;28;20136;-65
2022/01/17 14:45:45;;;;;;;4.13;2.28;;;;;;;;;;5029460;28;20025;-66
2022/01/17 14:48:10;;;;;;;;;;;;;;;;;;5025668;28;20025;-66
2022/01/17 14:50:36;;;;;;;6.20;2.78;;;;;;;;;;5029274;28;19936;-65
2022/01/17 14:53:01;;;;;;;4.18;2.10;;;;;;;;;;5027084;28;20104;-65
2022/01/17 15:00:57;;;;;;;4.38;2.00;;;;;;;;;;5029803;28;20037;-67
2022/01/17 15:03:27;;;;;;;3.85;1.60;;;;;;;;;;5022168;28;20461;-65
2022/01/17 15:05:53;;;;;;;4.00;1.70;;;;;;;;;;5025604;28;20060;-65
2022/01/17 15:08:18;;;;;;;3.83;1.75;;;;;;;;;;5028369;28;20029;-65
2022/01/17 15:10:44;;;;;;;3.90;1.60;;;;;;;;;;5028346;28;20483;-65